createdAt,value
2017-11-13T00:00:03.028Z,4.6
2017-11-13T00:05:02.984Z,4.6
2017-11-13T00:10:02.867Z,4.6
2017-11-13T00:15:02.538Z,4.6
2017-11-13T00:20:02.978Z,4.5
2017-11-13T00:25:03.023Z,4.5
2017-11-13T00:30:02.410Z,4.5
2017-11-13T00:35:02.341Z,4.5
2017-11-13T00:40:02.408Z,4.4
2017-11-13T00:45:02.911Z,4.4
2017-11-13T00:50:02.292Z,4.3
2017-11-13T00:55:02.417Z,4.3
2017-11-13T01:00:07.812Z,4.2
2017-11-13T01:05:02.837Z,4.2
2017-11-13T01:10:02.714Z,4.2
2017-11-13T01:15:03.232Z,4.2
2017-11-13T01:20:02.649Z,4.2
2017-11-13T01:25:02.665Z,4.1
2017-11-13T01:30:03.025Z,4.2
2017-11-13T01:35:02.959Z,4.2
2017-11-13T01:40:02.876Z,4.1
2017-11-13T01:45:02.326Z,4.1
2017-11-13T01:50:05.370Z,4.1
2017-11-13T01:55:02.799Z,4.1
2017-11-13T02:00:03.132Z,4.1
2017-11-13T02:05:03.206Z,4.1
2017-11-13T02:10:03.093Z,4.1
2017-11-13T02:15:02.621Z,4.1
2017-11-13T02:20:02.956Z,4.1
2017-11-13T02:25:03.062Z,4.1
2017-11-13T02:30:07.522Z,4.1
2017-11-13T02:35:02.505Z,4.2
2017-11-13T02:40:05.052Z,4.1
2017-11-13T02:45:02.936Z,4.1
2017-11-13T02:50:03.303Z,4.1
2017-11-13T02:55:02.417Z,4.1
2017-11-13T03:00:04.919Z,4.1
2017-11-13T03:05:02.843Z,4.1
2017-11-13T03:10:02.762Z,4.2
2017-11-13T03:15:03.277Z,4.2
2017-11-13T03:20:02.671Z,4.2
2017-11-13T03:25:02.712Z,4.2
2017-11-13T03:30:03.033Z,4.2
2017-11-13T03:35:03.093Z,4.2
2017-11-13T03:40:02.863Z,4.1
2017-11-13T03:45:02.380Z,4.1
2017-11-13T03:50:02.868Z,4.1
2017-11-13T03:55:02.889Z,4.1
2017-11-13T04:00:10.699Z,4.1
2017-11-13T04:05:03.153Z,4.1
2017-11-13T04:10:03.090Z,4.2
2017-11-13T04:15:02.549Z,4.1
2017-11-13T04:20:02.872Z,4.2
2017-11-13T04:25:02.776Z,4.2
2017-11-13T04:30:03.122Z,4.2
2017-11-13T04:35:03.205Z,4.1
2017-11-13T04:40:03.131Z,4.1
2017-11-13T04:45:02.623Z,4.1
2017-11-13T04:50:03.005Z,4
2017-11-13T04:55:03.015Z,4.1
2017-11-13T05:00:02.318Z,4.1
2017-11-13T05:05:02.397Z,4
2017-11-13T05:10:03.256Z,4
2017-11-13T05:15:02.721Z,4.1
2017-11-13T05:20:03.051Z,4.1
2017-11-13T05:25:03.117Z,4.1
2017-11-13T05:30:02.427Z,4.1
2017-11-13T05:35:02.477Z,4.1
2017-11-13T05:40:05.742Z,4.2
2017-11-13T05:45:02.758Z,4.2
2017-11-13T05:50:03.210Z,4.2
2017-11-13T05:55:03.168Z,4.3
2017-11-13T06:00:02.607Z,4.3
2017-11-13T06:05:02.602Z,4.4
2017-11-13T06:10:02.519Z,4.4
2017-11-13T06:15:02.972Z,4.4
2017-11-13T06:20:03.335Z,4.4
2017-11-13T06:25:02.401Z,4.4
2017-11-13T06:30:02.931Z,4.4
2017-11-13T06:35:02.837Z,4.5
2017-11-13T06:40:02.798Z,4.5
2017-11-13T06:45:03.300Z,4.6
2017-11-13T06:50:02.666Z,4.6
2017-11-13T06:55:02.726Z,4.6
2017-11-13T07:00:03.098Z,4.6
2017-11-13T07:05:03.186Z,4.7
2017-11-13T07:10:03.163Z,4.7
2017-11-13T07:15:02.636Z,4.8
2017-11-13T07:20:02.977Z,4.8
2017-11-13T07:25:03.073Z,4.8
2017-11-13T07:30:02.417Z,4.8
2017-11-13T07:35:05.039Z,4.9
2017-11-13T07:40:02.449Z,4.8
2017-11-13T07:45:08.016Z,4.9
2017-11-13T07:50:10.877Z,5
2017-11-13T07:55:02.339Z,5
2017-11-13T08:00:02.716Z,5
2017-11-13T08:05:02.833Z,5.1
2017-11-13T08:10:05.292Z,5.2
2017-11-13T08:15:03.294Z,5.2
2017-11-13T08:20:02.708Z,5.2
2017-11-13T08:25:02.774Z,5.2
2017-11-13T08:30:03.122Z,5.2
2017-11-13T08:35:05.757Z,5.2
2017-11-13T08:40:05.677Z,5.2
2017-11-13T08:45:05.219Z,5.2
2017-11-13T08:50:03.152Z,5.2
2017-11-13T08:55:08.210Z,5.3
2017-11-13T09:00:02.667Z,5.3
2017-11-13T09:05:07.723Z,5.4
2017-11-13T09:10:02.720Z,5.4
2017-11-13T09:15:05.831Z,5.4
2017-11-13T09:20:02.669Z,5.4
2017-11-13T09:25:02.744Z,5.5
2017-11-13T09:30:03.239Z,5.5
2017-11-13T09:35:03.273Z,5.5
2017-11-13T09:40:10.775Z,5.5
2017-11-13T09:45:02.889Z,5.5
2017-11-13T09:50:05.772Z,5.8
2017-11-13T09:55:02.382Z,5.8
2017-11-13T10:00:02.821Z,5.8
2017-11-13T10:05:02.938Z,5.8
2017-11-13T10:10:07.927Z,5.9
2017-11-13T10:15:02.618Z,5.9
2017-11-13T10:20:03.015Z,6
2017-11-13T10:25:03.156Z,5.9
2017-11-13T10:30:02.690Z,6
2017-11-13T10:35:02.841Z,6
2017-11-13T10:40:05.318Z,6.1
2017-11-13T10:45:02.349Z,6.1
2017-11-13T10:50:08.025Z,6.1
2017-11-13T10:55:03.019Z,6.1
2017-11-13T11:00:02.481Z,6.1
2017-11-13T11:05:05.118Z,6.2
2017-11-13T11:10:07.620Z,6.2
2017-11-13T11:15:03.061Z,6.2
2017-11-13T11:20:02.606Z,6.5
2017-11-13T11:25:02.665Z,6.6
2017-11-13T11:30:03.062Z,6.5
2017-11-13T11:35:03.186Z,6.4
2017-11-13T11:40:03.190Z,6.6
2017-11-13T11:45:02.739Z,6.8
2017-11-13T11:50:03.227Z,6.8
2017-11-13T11:55:02.355Z,6.8
2017-11-13T12:00:02.752Z,6.7
2017-11-13T12:05:10.561Z,6.9
2017-11-13T12:10:05.549Z,6.9
2017-11-13T12:15:05.282Z,7
2017-11-13T12:20:05.820Z,7.2
2017-11-13T12:25:20.431Z,7.3
2017-11-13T12:30:08.463Z,7.3
2017-11-13T12:35:15.463Z,7.2
2017-11-13T12:40:25.800Z,7.6
2017-11-13T12:45:36.033Z,7.8
2017-11-13T12:50:07.497Z,7.6
2017-11-13T12:55:02.906Z,7.2
2017-11-13T13:00:07.657Z,7.5
2017-11-13T13:10:18.423Z,7.4
2017-11-13T13:15:15.826Z,7.4
2017-11-13T13:20:07.997Z,7.4
2017-11-13T13:25:05.894Z,7.5
2017-11-13T13:30:08.038Z,7.4
2017-11-13T13:35:15.082Z,7.4
2017-11-13T13:40:12.624Z,7.4
2017-11-13T13:45:02.511Z,7.4
2017-11-13T13:50:05.682Z,7.4
2017-11-13T13:55:37.943Z,7.4
2017-11-13T14:00:03.382Z,7.5
2017-11-13T14:05:35.550Z,7.2
2017-11-13T14:10:05.408Z,7.2
2017-11-13T14:15:10.370Z,7.2
2017-11-13T14:20:13.513Z,7.1
2017-11-13T14:25:02.774Z,7.1
2017-11-13T14:30:08.419Z,7
2017-11-13T14:35:05.356Z,6.9
2017-11-13T14:40:15.604Z,6.8
2017-11-13T14:45:02.833Z,6.9
2017-11-13T14:50:05.856Z,6.9
2017-11-13T14:55:20.476Z,7
2017-11-13T15:00:05.869Z,7
2017-11-13T15:05:02.723Z,7
2017-11-13T15:10:25.807Z,7
2017-11-13T15:15:02.758Z,7
2017-11-13T15:20:25.185Z,7
2017-11-13T15:25:12.984Z,7.1
2017-11-13T15:30:05.044Z,6.8
2017-11-13T15:35:10.629Z,6.7
2017-11-13T15:40:05.734Z,6.6
2017-11-13T15:45:10.629Z,6.5
2017-11-13T15:50:23.020Z,6.5
2017-11-13T15:55:05.725Z,6.5
2017-11-13T16:00:10.478Z,6.6
2017-11-13T16:05:33.715Z,6.6
2017-11-13T16:10:05.045Z,6.6
2017-11-13T16:15:22.725Z,6.6
2017-11-13T16:20:18.353Z,6.6
2017-11-13T16:25:02.573Z,6.6
2017-11-13T16:35:15.285Z,6.4
2017-11-13T16:40:12.985Z,6.4
2017-11-13T16:45:05.274Z,6.3
2017-11-13T16:50:02.376Z,6.3
2017-11-13T16:55:05.331Z,6.1
2017-11-13T17:00:10.059Z,6.1
2017-11-13T17:05:20.495Z,6
2017-11-13T17:15:18.015Z,6
2017-11-13T17:20:07.529Z,5.9
2017-11-13T17:25:02.722Z,5.9
2017-11-13T17:30:08.411Z,5.8
2017-11-13T17:35:25.508Z,5.8
2017-11-13T17:40:10.409Z,5.7
2017-11-13T17:45:15.318Z,5.6
2017-11-13T17:50:08.343Z,5.5
2017-11-13T17:55:02.641Z,5.6
2017-11-13T18:00:08.427Z,5.4
2017-11-13T18:05:10.117Z,5.3
2017-11-13T18:10:02.748Z,5.3
2017-11-13T18:15:07.554Z,5.3
2017-11-13T18:20:25.752Z,5.2
2017-11-13T18:25:05.813Z,5.1
2017-11-13T18:30:02.909Z,5.1
2017-11-13T18:35:03.216Z,5.1
2017-11-13T18:40:28.561Z,5
2017-11-13T18:45:08.132Z,5
2017-11-13T18:50:05.105Z,5
2017-11-13T18:55:02.878Z,5
2017-11-13T19:00:07.443Z,5.1
2017-11-13T19:05:15.360Z,5.1
2017-11-13T19:10:10.317Z,5.2
2017-11-13T19:15:05.093Z,5.2
2017-11-13T19:20:03.035Z,5.2
2017-11-13T19:30:02.829Z,5.1
2017-11-13T19:35:08.140Z,5
2017-11-13T19:40:13.313Z,5
2017-11-13T19:45:07.984Z,5
2017-11-13T19:50:02.457Z,5
2017-11-13T19:55:07.843Z,5
2017-11-13T20:00:38.803Z,5
2017-11-13T20:05:25.413Z,5.1
2017-11-13T20:15:07.593Z,5
2017-11-13T20:20:03.181Z,5
2017-11-13T20:25:05.092Z,4.9
2017-11-13T20:30:05.686Z,4.9
2017-11-13T20:35:05.073Z,4.8
2017-11-13T20:40:02.660Z,4.8
2017-11-13T20:45:02.470Z,4.8
2017-11-13T20:50:08.108Z,4.6
2017-11-13T20:55:07.527Z,4.5
2017-11-13T21:00:03.123Z,4.6
2017-11-13T21:05:07.534Z,4.4
2017-11-13T21:10:02.569Z,4.4
2017-11-13T21:15:12.561Z,4.2
2017-11-13T21:25:02.394Z,4.2
2017-11-13T21:30:30.939Z,4.2
2017-11-13T21:35:04.937Z,4.1
2017-11-13T21:45:03.289Z,4.1
2017-11-13T21:50:03.054Z,4.1
2017-11-13T21:55:05.378Z,4
2017-11-13T22:00:02.853Z,4
2017-11-13T22:05:03.200Z,4.1
2017-11-13T22:10:03.281Z,4.2
2017-11-13T22:15:38.539Z,4.2
2017-11-13T22:20:02.761Z,4.2
2017-11-13T22:25:10.694Z,4.1
2017-11-13T22:30:02.705Z,4.1
2017-11-13T22:35:03.101Z,4
2017-11-13T22:40:08.193Z,3.8
2017-11-13T22:45:05.457Z,3.7
2017-11-13T22:55:02.774Z,3.6
2017-11-13T23:00:03.321Z,3.5
2017-11-13T23:05:02.541Z,3.5
2017-11-13T23:10:15.271Z,3.4
2017-11-13T23:15:33.725Z,3.3
2017-11-13T23:20:12.957Z,3.3
2017-11-13T23:25:03.101Z,3.3
2017-11-13T23:30:20.391Z,3.1
2017-11-13T23:35:23.203Z,3
2017-11-13T23:40:08.129Z,3
2017-11-13T23:45:02.838Z,3
2017-11-13T23:55:07.669Z,3
